Time;durP1;ratioP1;P1;durP2;ratioP2;P2;SDS_P1;SDS_P2;PMS_P1;PMS_P2;Temp;Humidity;BMP_temperature;BMP_pressure;BME280_temperature;BME280_humidity;BME280_pressure;Samples;Min_cycle;Max_cycle;Signal;HPM_P1;HPM_P2
2022/01/05 00:01:27;;;;;;;12.27;2.25;;;;;;;4.68;100.00;100080.63;5064765;28;20115;-75
2022/01/05 00:03:52;;;;;;;6.88;2.03;;;;;;;4.68;100.00;100083.34;5064659;28;20032;-74
2022/01/05 00:06:18;;;;;;;10.82;2.58;;;;;;;4.71;100.00;100083.63;5060177;28;20074;-74
2022/01/05 00:08:43;;;;;;;14.25;2.78;;;;;;;4.69;100.00;100079.53;5036571;28;20094;-74
2022/01/05 00:11:10;;;;;;;9.98;2.60;;;;;;;4.52;100.00;100075.06;5045083;28;20033;-74
2022/01/05 00:13:36;;;;;;;13.20;2.85;;;;;;;4.59;100.00;100074.84;5027391;28;20032;-74
2022/01/05 00:16:02;;;;;;;14.50;2.53;;;;;;;4.55;100.00;100092.75;5044645;28;20403;-75
2022/01/05 00:18:27;;;;;;;14.07;2.75;;;;;;;4.60;100.00;100079.19;5043954;28;20056;-74
2022/01/05 00:20:53;;;;;;;16.00;3.03;;;;;;;4.50;100.00;100088.09;5027188;28;20240;-74
2022/01/05 00:23:18;;;;;;;13.45;2.55;;;;;;;4.51;100.00;100076.16;5042587;28;20051;-74
2022/01/05 00:25:44;;;;;;;18.83;3.17;;;;;;;4.41;100.00;100086.91;5043428;28;20430;-75
2022/01/05 00:28:09;;;;;;;19.75;3.05;;;;;;;4.41;100.00;100087.75;5035411;28;20069;-73
2022/01/05 00:30:34;;;;;;;9.02;2.33;;;;;;;4.57;100.00;100085.16;5062831;28;20481;-75
2022/01/05 00:33:00;;;;;;;12.95;2.55;;;;;;;4.40;100.00;100082.59;5065393;28;20032;-74
2022/01/05 00:35:26;;;;;;;10.68;2.30;;;;;;;4.44;100.00;100083.69;5064844;28;20032;-75
2022/01/05 00:37:51;;;;;;;12.75;3.17;;;;;;;4.35;100.00;100090.69;5064604;28;20079;-74
2022/01/05 00:40:17;;;;;;;13.45;3.53;;;;;;;4.38;100.00;100091.00;5060197;28;20088;-74
2022/01/05 00:42:43;;;;;;;20.35;2.90;;;;;;;4.37;100.00;100092.06;5032166;28;20032;-74
2022/01/05 00:45:09;;;;;;;15.63;2.65;;;;;;;4.35;100.00;100087.97;5065040;28;20086;-73
2022/01/05 00:47:35;;;;;;;9.43;2.67;;;;;;;4.34;100.00;100089.84;5044419;28;20159;-74
2022/01/05 00:50:00;;;;;;;15.00;3.20;;;;;;;4.15;100.00;100094.03;5065911;28;20131;-74
2022/01/05 00:52:26;;;;;;;12.20;2.65;;;;;;;4.39;100.00;100083.66;5064272;28;20047;-73
2022/01/05 00:54:51;;;;;;;14.68;2.63;;;;;;;4.42;100.00;100086.66;5063006;28;20059;-75
2022/01/05 00:57:18;;;;;;;8.52;2.50;;;;;;;4.35;100.00;100087.97;5062530;28;20024;-73
2022/01/05 00:59:43;;;;;;;20.48;3.00;;;;;;;4.45;100.00;100090.75;5047855;28;20035;-73
2022/01/05 01:02:09;;;;;;;14.77;2.78;;;;;;;4.35;100.00;100085.25;5058621;28;20032;-73
2022/01/05 01:04:34;;;;;;;14.23;3.78;;;;;;;4.30;100.00;100077.09;5062537;28;20038;-73
2022/01/05 01:06:59;;;;;;;9.02;2.10;;;;;;;4.27;100.00;100078.41;5054367;28;20032;-75
2022/01/05 01:09:25;;;;;;;15.68;2.83;;;;;;;4.30;100.00;100088.75;5061362;28;20055;-74
2022/01/05 01:11:50;;;;;;;19.30;2.53;;;;;;;4.42;100.00;100081.22;5041093;28;20415;-74
2022/01/05 01:14:35;;;;;;;10.85;3.17;;;;;;;4.44;100.00;100089.13;5050227;28;20107;-74
2022/01/05 01:17:00;;;;;;;16.17;3.65;;;;;;;4.46;100.00;100095.13;5059219;28;20037;-74
2022/01/05 01:19:25;;;;;;;18.67;2.75;;;;;;;4.38;100.00;100085.56;5046580;28;20047;-74
2022/01/05 01:21:51;;;;;;;19.23;3.17;;;;;;;4.53;100.00;100097.63;5046867;28;20028;-74
2022/01/05 01:24:35;;;;;;;15.18;3.05;;;;;;;4.41;100.00;100092.34;5061558;28;20039;-74
2022/01/05 01:27:00;;;;;;;17.08;3.00;;;;;;;4.37;100.00;100113.75;5047293;28;20028;-73
2022/01/05 01:29:26;;;;;;;13.15;2.78;;;;;;;4.24;100.00;100116.91;5063237;28;20483;-74
2022/01/05 01:31:51;;;;;;;13.50;3.65;;;;;;;4.42;100.00;100107.56;5062608;28;20059;-74
2022/01/05 01:34:36;;;;;;;15.43;3.17;;;;;;;4.30;100.00;100113.16;5063972;28;20032;-75
2022/01/05 01:37:02;;;;;;;12.63;2.85;;;;;;;4.24;100.00;100108.78;5065422;28;20031;-75
2022/01/05 01:39:27;;;;;;;12.85;3.13;;;;;;;4.30;100.00;100112.38;5061195;28;20024;-75
2022/01/05 01:41:52;;;;;;;11.50;3.13;;;;;;;4.26;100.00;100128.31;5059305;28;20386;-75
2022/01/05 01:44:20;;;;;;;10.80;2.55;;;;;;;4.32;100.00;100104.78;5059646;28;20091;-74
2022/01/05 01:46:45;;;;;;;15.00;3.35;;;;;;;4.50;100.00;100098.13;5025624;28;20049;-74
2022/01/05 01:49:11;;;;;;;18.13;3.60;;;;;;;4.25;100.00;100105.00;5055170;28;20467;-74
2022/01/05 01:51:36;;;;;;;10.73;2.63;;;;;;;4.42;100.00;100130.09;5044793;28;20090;-74
2022/01/05 01:54:03;;;;;;;11.32;2.92;;;;;;;4.43;100.00;100114.63;5061721;28;20035;-73
2022/01/05 01:56:33;;;;;;;11.68;3.17;;;;;;;4.36;100.00;100109.44;5048647;28;20021;-74
2022/01/05 01:58:59;;;;;;;17.73;3.58;;;;;;;4.38;100.00;100118.13;5042128;28;20670;-73
2022/01/05 02:01:25;;;;;;;17.58;3.83;;;;;;;4.43;100.00;100114.63;5040085;28;20025;-73
2022/01/05 02:03:50;;;;;;;11.40;3.33;;;;;;;4.44;100.00;100110.03;5049579;28;20032;-74
2022/01/05 02:06:16;;;;;;;19.48;3.42;;;;;;;4.38;100.00;100122.75;5044620;28;20028;-75
2022/01/05 02:08:41;;;;;;;11.98;3.20;;;;;;;4.44;100.00;100116.25;5059662;28;20263;-75
2022/01/05 02:11:08;;;;;;;15.85;3.45;;;;;;;4.39;100.00;100132.50;5061184;28;20132;-74
2022/01/05 02:13:34;;;;;;;11.38;3.33;;;;;;;4.47;100.00;100123.06;5060095;28;20502;-74
2022/01/05 02:15:59;;;;;;;20.38;4.05;;;;;;;4.39;100.00;100108.91;5062161;28;20025;-73
2022/01/05 02:21:05;;;;;;;13.18;3.25;;;;;;;4.56;100.00;100119.63;5058808;28;20059;-74
2022/01/05 02:23:33;;;;;;;15.65;3.70;;;;;;;4.52;100.00;100117.69;5045512;28;20106;-72
2022/01/05 02:25:58;;;;;;;13.80;3.30;;;;;;;4.45;100.00;100117.09;5034723;28;20395;-74
2022/01/05 02:28:25;;;;;;;15.15;3.60;;;;;;;4.41;100.00;100138.50;5065604;28;20028;-74
2022/01/05 02:30:54;;;;;;;20.13;3.75;;;;;;;4.50;100.00;100130.72;5041108;28;20472;-76
2022/01/05 02:33:25;;;;;;;16.65;3.67;;;;;;;4.39;100.00;100125.19;5057856;28;20173;-73
2022/01/05 02:35:51;;;;;;;15.82;4.22;;;;;;;4.39;100.00;100140.66;5059835;28;20045;-74
2022/01/05 02:38:18;;;;;;;16.45;3.20;;;;;;;4.39;100.00;100118.94;5046458;28;20027;-73
2022/01/05 02:40:44;;;;;;;16.73;3.10;;;;;;;4.25;100.00;100118.56;5039913;28;20036;-75
2022/01/05 02:43:09;;;;;;;15.77;3.15;;;;;;;4.27;100.00;100124.53;5055642;28;20023;-74
2022/01/05 02:45:35;;;;;;;21.25;3.50;;;;;;;4.39;100.00;100135.22;5065043;28;20043;-74
2022/01/05 02:48:00;;;;;;;16.65;3.65;;;;;;;4.37;100.00;100127.34;5064993;28;20466;-75
2022/01/05 02:50:26;;;;;;;20.23;3.60;;;;;;;4.40;100.00;100121.41;5063503;28;20038;-75
2022/01/05 02:52:52;;;;;;;15.73;3.03;;;;;;;4.37;100.00;100130.06;5041549;28;20451;-75
2022/01/05 02:55:18;;;;;;;18.15;3.65;;;;;;;4.26;100.00;100132.94;5060391;28;20051;-74
2022/01/05 02:57:43;;;;;;;13.65;3.30;;;;;;;4.48;100.00;100130.97;5058103;28;20095;-74
2022/01/05 03:00:11;;;;;;;11.80;3.40;;;;;;;4.42;100.00;100132.81;5043908;28;20061;-74
2022/01/05 03:02:37;;;;;;;14.65;3.33;;;;;;;4.34;100.00;100146.03;5023810;28;20024;-74
2022/01/05 03:05:03;;;;;;;13.00;3.13;;;;;;;4.35;100.00;100158.53;5045384;28;20517;-74
2022/01/05 03:07:29;;;;;;;13.55;3.60;;;;;;;4.48;100.00;100141.00;5043567;28;20495;-75
2022/01/05 03:09:54;;;;;;;19.08;4.13;;;;;;;4.43;100.00;100152.63;5026982;28;20197;-73
2022/01/05 03:12:20;;;;;;;18.27;3.38;;;;;;;4.39;100.00;100138.78;5052930;28;20495;-73
2022/01/05 03:14:46;;;;;;;15.13;3.53;;;;;;;4.48;100.00;100146.44;5008436;28;20576;-74
2022/01/05 03:17:11;;;;;;;22.10;3.78;;;;;;;4.57;100.00;100164.69;5043581;28;20032;-74
2022/01/05 03:19:36;;;;;;;20.45;4.22;;;;;;;4.46;100.00;100178.44;5061187;28;20375;-74
2022/01/05 03:22:02;;;;;;;18.48;3.78;;;;;;;4.37;100.00;100165.31;5047294;28;20075;-74
2022/01/05 03:24:29;;;;;;;16.05;3.83;;;;;;;4.41;100.00;100160.19;5063405;28;20162;-73
2022/01/05 03:26:54;;;;;;;15.70;3.42;;;;;;;4.50;100.00;100153.22;5061367;28;20032;-74
2022/01/05 03:29:20;;;;;;;16.20;3.40;;;;;;;4.58;100.00;100157.38;5049350;28;20025;-74
2022/01/05 03:31:45;;;;;;;15.82;3.45;;;;;;;4.41;100.00;100169.19;5058595;28;20438;-74
2022/01/05 03:34:17;;;;;;;14.65;3.10;;;;;;;4.38;100.00;100166.97;5047616;28;20130;-73
2022/01/05 03:36:42;;;;;;;13.87;3.03;;;;;;;4.51;100.00;100164.91;5062401;28;20024;-73
2022/01/05 03:39:08;;;;;;;13.38;2.80;;;;;;;4.68;100.00;100154.75;5047381;28;20332;-73
2022/01/05 03:41:33;;;;;;;13.65;3.10;;;;;;;4.46;100.00;100162.16;5051280;28;20037;-74
2022/01/05 03:43:59;;;;;;;15.40;2.92;;;;;;;4.63;100.00;100162.84;5045922;28;20685;-74
2022/01/05 03:46:24;;;;;;;14.65;3.25;;;;;;;4.49;100.00;100167.88;5043468;28;20045;-75
2022/01/05 03:48:49;;;;;;;13.05;3.45;;;;;;;4.53;100.00;100160.88;5042571;28;20328;-73
2022/01/05 03:51:15;;;;;;;19.80;2.85;;;;;;;4.76;100.00;100165.13;5042371;28;20056;-73
2022/01/05 03:53:40;;;;;;;16.40;3.53;;;;;;;4.74;100.00;100169.19;5040576;28;20029;-73
2022/01/05 03:56:05;;;;;;;15.77;3.53;;;;;;;4.67;100.00;100172.09;5040764;28;20066;-74
2022/01/05 03:58:32;;;;;;;12.65;3.20;;;;;;;4.66;100.00;100170.47;5043531;28;20031;-73
2022/01/05 04:00:57;;;;;;;13.50;3.00;;;;;;;4.76;100.00;100167.84;5024600;28;20491;-73
2022/01/05 04:03:23;;;;;;;15.02;3.08;;;;;;;4.77;100.00;100169.47;5043342;28;20098;-74
2022/01/05 04:05:48;;;;;;;17.65;3.92;;;;;;;4.70;100.00;100187.88;5039458;28;20037;-75
2022/01/05 04:08:14;;;;;;;14.75;3.47;;;;;;;4.81;100.00;100171.69;5043424;28;20071;-75
2022/01/05 04:10:39;;;;;;;15.50;3.40;;;;;;;4.73;100.00;100159.41;5038325;28;20035;-74
2022/01/05 04:13:05;;;;;;;11.43;3.42;;;;;;;4.75;100.00;100176.25;5043145;28;20041;-73
2022/01/05 04:15:32;;;;;;;19.48;3.33;;;;;;;4.76;100.00;100173.25;5042070;28;20025;-73
2022/01/05 04:17:58;;;;;;;16.35;3.95;;;;;;;4.64;100.00;100159.06;5042844;28;20071;-72
2022/01/05 04:20:23;;;;;;;17.63;4.18;;;;;;;4.59;100.00;100164.44;5026095;28;20401;-73
2022/01/05 04:22:49;;;;;;;20.33;3.83;;;;;;;4.77;100.00;100172.19;5048037;28;20060;-73
2022/01/05 04:25:16;;;;;;;14.27;3.45;;;;;;;4.51;100.00;100173.88;5043867;28;20095;-74
2022/01/05 04:27:42;;;;;;;16.85;4.25;;;;;;;4.56;100.00;100170.41;5042144;28;20498;-75
2022/01/05 04:30:10;;;;;;;14.70;3.67;;;;;;;4.65;100.00;100176.16;5051147;28;20083;-74
2022/01/05 04:32:36;;;;;;;18.05;4.45;;;;;;;4.65;100.00;100181.59;5025291;28;20119;-74
2022/01/05 04:35:02;;;;;;;15.68;3.72;;;;;;;4.46;100.00;100175.72;5034553;28;20132;-75
2022/01/05 04:37:29;;;;;;;23.35;4.10;;;;;;;4.56;100.00;100183.97;5043052;28;20025;-74
2022/01/05 04:39:55;;;;;;;15.90;3.72;;;;;;;4.44;100.00;100192.25;5033122;28;20102;-76
2022/01/05 04:42:21;;;;;;;19.02;4.10;;;;;;;4.57;100.00;100194.56;5043656;28;20028;-74
2022/01/05 04:44:46;;;;;;;21.52;4.55;;;;;;;4.73;100.00;100181.13;5028473;28;20116;-75
2022/01/05 04:47:12;;;;;;;21.95;4.38;;;;;;;4.59;100.00;100194.28;5042666;28;20060;-73
2022/01/05 04:49:39;;;;;;;24.75;3.92;;;;;;;4.60;100.00;100190.50;5041573;28;20426;-74
2022/01/05 04:52:04;;;;;;;21.20;3.63;;;;;;;4.61;100.00;100186.72;5042360;28;20522;-74
2022/01/05 04:54:30;;;;;;;11.88;3.25;;;;;;;4.71;100.00;100178.66;5024925;28;20036;-73
2022/01/05 04:56:55;;;;;;;21.17;4.13;;;;;;;4.65;100.00;100187.03;5037589;28;20370;-74
2022/01/05 04:59:21;;;;;;;18.55;3.53;;;;;;;4.70;100.00;100197.94;5025994;28;20040;-75
2022/01/05 05:01:46;;;;;;;29.10;4.32;;;;;;;4.60;100.00;100182.38;5006357;28;20025;-73
2022/01/05 05:04:11;;;;;;;12.52;3.25;;;;;;;4.65;100.00;100190.56;5025911;28;20041;-74
2022/01/05 05:06:40;;;;;;;15.07;3.20;;;;;;;4.67;100.00;100188.38;5041908;28;20025;-72
2022/01/05 05:09:06;;;;;;;15.85;3.45;;;;;;;4.66;100.00;100194.09;5044722;28;20032;-74
2022/01/05 05:11:31;;;;;;;18.20;3.63;;;;;;;4.73;100.00;100194.69;5052897;28;20431;-74
2022/01/05 05:13:57;;;;;;;24.75;4.13;;;;;;;4.73;100.00;100202.84;5033821;28;20623;-72
2022/01/05 05:16:22;;;;;;;18.83;3.72;;;;;;;4.83;100.00;100193.97;5044079;28;20056;-75
2022/01/05 05:18:48;;;;;;;14.07;3.28;;;;;;;4.73;100.00;100200.13;5056779;28;20448;-74
2022/01/05 05:21:13;;;;;;;17.02;4.15;;;;;;;4.77;100.00;100191.22;5043169;28;20036;-74
2022/01/05 05:23:39;;;;;;;22.05;4.05;;;;;;;4.60;100.00;100198.66;5051579;28;20068;-74
2022/01/05 05:26:05;;;;;;;16.38;3.58;;;;;;;4.82;100.00;100195.03;5031094;28;20480;-74
2022/01/05 05:28:30;;;;;;;22.02;3.72;;;;;;;4.74;100.00;100199.06;5035180;28;20039;-73
2022/01/05 05:30:55;;;;;;;11.85;3.28;;;;;;;4.66;100.00;100200.34;5033025;28;20036;-73
2022/01/05 05:33:21;;;;;;;16.52;3.90;;;;;;;4.77;100.00;100196.63;5031337;28;20397;-74
2022/01/05 05:35:47;;;;;;;23.17;4.18;;;;;;;4.77;100.00;100207.50;5049568;28;20034;-74
2022/01/05 05:38:14;;;;;;;17.17;3.83;;;;;;;4.91;100.00;100196.19;5050902;28;20032;-73
2022/01/05 05:40:40;;;;;;;16.15;3.10;;;;;;;4.85;100.00;100197.22;5056414;28;20127;-74
2022/01/05 05:43:06;;;;;;;22.25;3.40;;;;;;;4.90;100.00;100205.41;5043036;28;20028;-74
2022/01/05 05:45:31;;;;;;;17.92;4.70;;;;;;;4.90;100.00;100210.84;5056431;28;20082;-76
2022/01/05 05:47:56;;;;;;;19.33;3.40;;;;;;;5.09;100.00;100217.50;5011215;28;20053;-74
2022/01/05 05:50:22;;;;;;;19.83;3.67;;;;;;;5.02;100.00;100216.09;5061517;28;20048;-73
2022/01/05 05:52:48;;;;;;;16.15;3.97;;;;;;;5.14;100.00;100224.88;5028382;28;20095;-74
2022/01/05 05:55:15;;;;;;;21.52;3.45;;;;;;;5.28;100.00;100222.53;5040404;28;20039;-73
2022/01/05 05:57:42;;;;;;;22.10;4.32;;;;;;;5.20;100.00;100223.00;5060013;28;20483;-74
2022/01/05 06:00:10;;;;;;;24.35;4.53;;;;;;;5.22;100.00;100223.59;5056862;28;20057;-74
2022/01/05 06:02:36;;;;;;;22.17;4.50;;;;;;;5.21;100.00;100221.94;5052290;28;20036;-75
2022/01/05 06:05:02;;;;;;;27.85;4.30;;;;;;;5.18;100.00;100220.56;5056857;28;20684;-75
2022/01/05 06:07:27;;;;;;;25.77;4.25;;;;;;;5.27;100.00;100215.47;5061352;28;20034;-74
2022/01/05 06:09:53;;;;;;;21.02;4.47;;;;;;;5.17;100.00;100215.41;5055847;28;20119;-74
2022/01/05 06:12:18;;;;;;;22.05;3.85;;;;;;;5.18;100.00;100227.91;5042007;28;20115;-75
2022/01/05 06:14:44;;;;;;;25.50;4.68;;;;;;;5.37;100.00;100241.91;5059392;28;20036;-73
2022/01/05 06:17:09;;;;;;;21.92;4.40;;;;;;;5.07;100.00;100238.69;5043871;28;20467;-74
2022/01/05 06:19:35;;;;;;;20.45;3.95;;;;;;;5.14;100.00;100254.78;5056920;28;20091;-74
2022/01/05 06:22:00;;;;;;;19.20;3.45;;;;;;;5.11;100.00;100253.38;5039993;28;20476;-73
2022/01/05 06:24:26;;;;;;;21.25;4.18;;;;;;;5.33;100.00;100236.16;5038474;28;20036;-73
2022/01/05 06:26:54;;;;;;;20.90;4.18;;;;;;;5.20;100.00;100253.75;5039825;28;20372;-74
2022/01/05 06:29:21;;;;;;;21.67;4.63;;;;;;;5.26;100.00;100241.00;5042027;28;20037;-73
2022/01/05 06:31:47;;;;;;;27.15;3.65;;;;;;;5.28;100.00;100244.25;5038761;28;20025;-74
2022/01/05 06:34:12;;;;;;;22.92;4.38;;;;;;;5.41;100.00;100257.44;5040662;28;20712;-74
2022/01/05 06:36:38;;;;;;;17.70;3.65;;;;;;;5.36;100.00;100256.56;5058986;28;20035;-74
2022/01/05 06:39:04;;;;;;;27.00;4.72;;;;;;;5.22;100.00;100258.91;5039765;28;20595;-75
2022/01/05 06:41:32;;;;;;;20.70;3.97;;;;;;;5.40;100.00;100269.38;5059955;28;20025;-76
2022/01/05 06:43:57;;;;;;;19.17;4.28;;;;;;;5.52;100.00;100247.41;5047621;28;20170;-75
2022/01/05 06:46:23;;;;;;;19.20;4.90;;;;;;;5.28;100.00;100263.28;5042020;28;20518;-76
2022/01/05 06:48:48;;;;;;;17.92;3.33;;;;;;;5.26;100.00;100257.31;5038779;28;20124;-73
2022/01/05 06:51:14;;;;;;;21.40;5.05;;;;;;;5.31;100.00;100260.06;5041828;28;20029;-73
2022/01/05 06:53:42;;;;;;;18.17;4.25;;;;;;;5.29;100.00;100264.94;5038587;28;20419;-76
2022/01/05 06:56:07;;;;;;;22.80;4.10;;;;;;;5.31;100.00;100268.22;5038221;28;20858;-76
2022/01/05 06:58:34;;;;;;;22.67;5.68;;;;;;;5.22;100.00;100267.88;5041743;28;20036;-76
2022/01/05 07:01:00;;;;;;;22.55;4.32;;;;;;;5.36;100.00;100262.81;5044847;28;20491;-72
2022/01/05 07:03:26;;;;;;;25.27;4.60;;;;;;;5.34;100.00;100284.00;5029211;28;20042;-74
2022/01/05 07:05:57;;;;;;;24.40;5.15;;;;;;;5.29;100.00;100273.09;5039767;28;20467;-74
2022/01/05 07:08:23;;;;;;;24.67;4.88;;;;;;;5.29;100.00;100289.41;5042184;28;20519;-74
2022/01/05 07:10:49;;;;;;;28.30;4.63;;;;;;;5.39;100.00;100294.91;5056305;28;20058;-74
2022/01/05 07:13:15;;;;;;;21.58;5.25;;;;;;;5.49;100.00;100294.16;5045278;28;20090;-74
2022/01/05 07:15:40;;;;;;;26.05;4.28;;;;;;;5.65;100.00;100295.09;5048263;28;20033;-77
2022/01/05 07:18:06;;;;;;;17.33;3.92;;;;;;;5.47;100.00;100282.72;5044040;28;20148;-75
2022/01/05 07:20:31;;;;;;;22.73;3.85;;;;;;;5.40;100.00;100285.69;5028132;28;20499;-75
2022/01/05 07:22:56;;;;;;;26.45;5.40;;;;;;;5.40;100.00;100298.47;5026356;28;20048;-75
2022/01/05 07:25:22;;;;;;;28.13;4.60;;;;;;;5.51;100.00;100287.38;5040829;28;20490;-74
2022/01/05 07:27:49;;;;;;;24.90;4.25;;;;;;;5.32;100.00;100307.91;5042271;28;20439;-75
2022/01/05 07:30:14;;;;;;;16.70;3.17;;;;;;;5.10;100.00;100300.69;5029114;28;20159;-75
2022/01/05 07:32:40;;;;;;;21.73;4.55;;;;;;;5.05;100.00;100302.53;5063523;28;20269;-76
2022/01/05 07:35:07;;;;;;;13.95;3.40;;;;;;;5.00;100.00;100302.47;5060034;28;20045;-74
2022/01/05 07:37:32;;;;;;;18.17;3.33;;;;;;;5.10;100.00;100288.97;5046915;28;20105;-74
2022/01/05 07:39:57;;;;;;;20.73;4.05;;;;;;;5.17;100.00;100292.31;5047212;28;20318;-74
2022/01/05 07:42:23;;;;;;;17.33;4.95;;;;;;;5.39;100.00;100315.84;5023841;28;20171;-74
2022/01/05 07:44:51;;;;;;;23.00;3.97;;;;;;;5.26;100.00;100308.94;5026425;28;20025;-74
2022/01/05 07:47:16;;;;;;;21.20;3.63;;;;;;;4.93;100.00;100316.28;5025045;28;20079;-73
2022/01/05 07:49:42;;;;;;;21.20;4.45;;;;;;;4.83;100.00;100308.03;5027303;28;20423;-74
2022/01/05 07:52:08;;;;;;;24.45;4.38;;;;;;;4.84;100.00;100315.09;5040674;28;20491;-74
2022/01/05 07:54:34;;;;;;;20.63;4.22;;;;;;;4.87;100.00;100326.28;5041814;28;20052;-74
2022/01/05 07:57:00;;;;;;;23.83;4.10;;;;;;;4.89;100.00;100336.91;5040335;28;20021;-74
2022/01/05 07:59:25;;;;;;;22.98;4.50;;;;;;;4.86;100.00;100329.25;5043202;28;20052;-72
2022/01/05 08:01:52;;;;;;;22.30;4.50;;;;;;;4.76;100.00;100335.41;5025769;28;20158;-71
2022/01/05 08:04:19;;;;;;;19.10;4.03;;;;;;;4.50;100.00;100347.88;5043269;28;20439;-73
2022/01/05 08:06:44;;;;;;;24.55;5.15;;;;;;;4.49;100.00;100351.66;5031382;28;20039;-73
2022/01/05 08:09:10;;;;;;;25.17;4.50;;;;;;;4.56;100.00;100346.88;5040496;28;20332;-72
2022/01/05 08:11:35;;;;;;;27.02;5.28;;;;;;;4.55;100.00;100353.38;5042026;28;20140;-72
2022/01/05 08:14:00;;;;;;;29.30;5.07;;;;;;;4.64;100.00;100373.56;5044868;28;20402;-73
2022/01/05 08:16:26;;;;;;;30.10;4.85;;;;;;;4.65;100.00;100369.75;5064271;28;20463;-73
2022/01/05 08:18:55;;;;;;;26.40;4.88;;;;;;;4.64;100.00;100368.13;5045682;28;20032;-73
2022/01/05 08:21:22;;;;;;;31.95;5.40;;;;;;;4.79;100.00;100362.06;5062693;28;20036;-74
2022/01/05 08:23:47;;;;;;;31.20;5.53;;;;;;;4.84;100.00;100370.25;5061427;28;20403;-74
2022/01/05 08:26:13;;;;;;;31.92;4.95;;;;;;;4.80;100.00;100371.81;5057905;28;20784;-73
2022/01/05 08:28:38;;;;;;;26.13;4.88;;;;;;;4.99;100.00;100366.06;5063388;28;20544;-72
2022/01/05 08:31:04;;;;;;;33.97;5.53;;;;;;;5.00;100.00;100373.13;5027356;28;20029;-76
2022/01/05 08:33:29;;;;;;;31.80;5.35;;;;;;;5.03;100.00;100384.28;5068392;28;20127;-77
2022/01/05 08:35:55;;;;;;;27.48;5.43;;;;;;;5.10;100.00;100373.22;5066710;28;20028;-75
2022/01/05 08:38:21;;;;;;;34.40;6.03;;;;;;;5.24;100.00;100381.78;5047261;28;20036;-75
2022/01/05 08:40:47;;;;;;;31.55;5.88;;;;;;;5.26;100.00;100382.34;5053415;28;20044;-75
2022/01/05 08:43:14;;;;;;;37.35;5.30;;;;;;;5.40;100.00;100390.91;5008933;28;20041;-75
2022/01/05 08:45:41;;;;;;;23.40;4.57;;;;;;;5.32;100.00;100386.75;5042650;28;20124;-76
2022/01/05 08:48:06;;;;;;;30.60;4.95;;;;;;;5.42;100.00;100391.44;5041689;28;20049;-76
2022/01/05 08:50:34;;;;;;;33.47;5.07;;;;;;;5.46;100.00;100414.31;5045496;28;20277;-72
2022/01/05 08:53:00;;;;;;;27.77;5.22;;;;;;;5.37;100.00;100405.00;5061153;28;20187;-75
2022/01/05 08:55:29;;;;;;;26.00;4.63;;;;;;;5.26;100.00;100409.50;5058286;28;20108;-75
2022/01/05 08:57:56;;;;;;;24.70;4.60;;;;;;;5.36;100.00;100404.16;5065262;28;20051;-77
2022/01/05 09:00:22;;;;;;;30.25;4.50;;;;;;;5.45;100.00;100408.06;5059790;28;20055;-76
2022/01/05 09:02:49;;;;;;;25.30;4.93;;;;;;;5.56;100.00;100403.53;5061939;28;20036;-77
2022/01/05 09:05:15;;;;;;;28.75;5.18;;;;;;;5.60;100.00;100412.81;5059456;28;20387;-76
2022/01/05 09:07:40;;;;;;;27.55;4.80;;;;;;;5.65;100.00;100431.88;5063675;28;20222;-75
2022/01/05 09:10:06;;;;;;;23.98;5.32;;;;;;;5.72;100.00;100418.06;5040112;28;20040;-76
2022/01/05 09:12:32;;;;;;;26.77;4.68;;;;;;;5.96;100.00;100417.72;5061363;28;20085;-75
2022/01/05 09:14:59;;;;;;;28.35;4.68;;;;;;;5.87;100.00;100422.78;5061838;28;20029;-76
2022/01/05 09:17:25;;;;;;;34.45;6.97;;;;;;;5.94;100.00;100431.56;5044947;28;20051;-77
2022/01/05 09:19:51;;;;;;;29.58;5.75;;;;;;;5.89;100.00;100428.81;5063299;28;20029;-76
2022/01/05 09:22:18;;;;;;;27.00;5.05;;;;;;;6.04;100.00;100431.66;5041800;28;20048;-76
2022/01/05 09:24:43;;;;;;;26.63;4.75;;;;;;;6.03;100.00;100432.75;5061620;28;20039;-77
2022/01/05 09:27:09;;;;;;;24.05;4.43;;;;;;;6.22;100.00;100437.78;5057027;28;20395;-76
2022/01/05 09:29:34;;;;;;;25.00;4.68;;;;;;;6.17;100.00;100433.13;5044442;28;20036;-76
2022/01/05 09:32:06;;;;;;;24.40;4.45;;;;;;;6.16;100.00;100441.53;5059614;28;20037;-75
2022/01/05 09:34:32;;;;;;;23.30;3.88;;;;;;;6.16;100.00;100445.06;5064368;28;20090;-74
2022/01/05 09:37:06;;;;;;;29.10;4.95;;;;;;;6.28;100.00;100457.66;5062416;28;20043;-74
2022/01/05 09:42:16;;;;;;;21.88;4.22;;;;;;;6.09;100.00;100452.66;5039869;28;20044;-74
2022/01/05 09:44:43;;;;;;;29.17;4.43;;;;;;;6.01;100.00;100469.47;5041948;28;20364;-73
2022/01/05 09:47:11;;;;;;;29.25;5.32;;;;;;;5.98;100.00;100475.44;5038937;28;20053;-74
2022/01/05 09:49:39;;;;;;;23.98;4.18;;;;;;;6.16;100.00;100474.22;5042245;28;20035;-73
2022/01/05 09:52:09;;;;;;;27.13;5.88;;;;;;;6.02;100.00;100480.09;5039409;28;20037;-74
2022/01/05 09:54:37;;;;;;;31.30;5.75;;;;;;;6.40;100.00;100480.91;5038110;28;20025;-73
2022/01/05 09:57:05;;;;;;;30.23;5.65;;;;;;;6.17;100.00;100519.41;5022183;28;20033;-73
2022/01/05 09:59:34;;;;;;;26.92;5.30;;;;;;;6.34;100.00;100490.09;5041032;28;20432;-73
2022/01/05 10:01:59;;;;;;;34.10;4.30;;;;;;;6.49;100.00;100497.56;5041428;28;20136;-73
2022/01/05 10:04:25;;;;;;;27.30;5.70;;;;;;;6.19;100.00;100496.28;5041343;28;20567;-73
2022/01/05 10:06:51;;;;;;;28.35;4.82;;;;;;;6.31;100.00;100503.44;5040503;28;20199;-73
2022/01/05 10:09:16;;;;;;;29.50;5.07;;;;;;;6.31;100.00;100500.72;5020701;28;20124;-73
2022/01/05 10:11:42;;;;;;;22.98;4.72;;;;;;;6.04;100.00;100513.31;5038619;28;20151;-73
2022/01/05 10:14:11;;;;;;;23.25;4.40;;;;;;;5.74;100.00;100527.44;5040554;28;20066;-73
2022/01/05 10:16:37;;;;;;;37.38;5.93;;;;;;;5.74;100.00;100508.41;5041816;28;20033;-72
2022/01/05 10:19:08;;;;;;;29.60;5.00;;;;;;;5.65;100.00;100524.34;5041163;28;20040;-73
2022/01/05 10:21:39;;;;;;;28.08;4.97;;;;;;;5.29;100.00;100523.97;5041609;28;20051;-72
2022/01/05 10:24:05;;;;;;;27.85;4.97;;;;;;;5.18;100.00;100537.72;5020794;28;20163;-73
2022/01/05 10:26:34;;;;;;;33.03;4.90;;;;;;;5.21;100.00;100543.44;5037958;28;20113;-72
2022/01/05 10:29:07;;;;;;;32.47;5.65;;;;;;;5.39;100.00;100555.09;5041095;28;21507;-72
2022/01/05 10:31:36;;;;;;;29.23;4.80;;;;;;;5.37;100.00;100541.75;5050772;28;20078;-73
2022/01/05 10:34:15;;;;;;;28.60;5.22;;;;;;;5.48;100.00;100548.94;5061563;28;20029;-72
2022/01/05 10:36:52;;;;;;;38.25;5.38;;;;;;;5.70;100.00;100550.78;5062617;28;20316;-72
2022/01/05 10:39:39;;;;;;;31.15;5.63;;;;;;;5.64;100.00;100555.38;5058192;28;20044;-72
2022/01/05 10:42:07;;;;;;;31.52;5.43;;;;;;;5.76;100.00;100551.69;5059509;28;20123;-71
2022/01/05 10:44:33;;;;;;;26.15;5.03;;;;;;;5.82;100.00;100564.22;5059504;28;20540;-73
2022/01/05 10:47:01;;;;;;;31.98;5.80;;;;;;;5.63;100.00;100569.22;5065381;28;20151;-72
2022/01/05 10:49:39;;;;;;;32.13;5.18;;;;;;;5.60;100.00;100577.88;5045918;28;20079;-73
2022/01/05 10:52:26;;;;;;;23.58;5.22;;;;;;;5.88;100.00;100563.22;5063036;28;20501;-72
2022/01/05 10:54:53;;;;;;;33.85;5.32;;;;;;;5.84;100.00;100579.22;5061077;28;20495;-72
2022/01/05 10:57:19;;;;;;;39.00;5.85;;;;;;;5.96;100.00;100573.66;5044985;28;20117;-73
2022/01/05 10:59:48;;;;;;;31.75;5.25;;;;;;;5.88;100.00;100576.81;5063041;28;20028;-74
2022/01/05 11:02:25;;;;;;;30.60;5.40;;;;;;;6.18;100.00;100572.75;5061972;28;20051;-75
2022/01/05 11:04:52;;;;;;;28.17;6.00;;;;;;;6.30;100.00;100578.03;5064461;28;20147;-75
2022/01/05 11:07:31;;;;;;;32.80;6.40;;;;;;;6.31;100.00;100585.94;5061621;28;20565;-74
2022/01/05 11:10:01;;;;;;;38.40;6.90;;;;;;;6.24;100.00;100572.53;5062488;28;20033;-72
2022/01/05 11:12:35;;;;;;;30.08;5.50;;;;;;;6.12;100.00;100574.63;5059602;28;20072;-74
2022/01/05 11:15:23;;;;;;;26.88;4.45;;;;;;;6.38;100.00;100589.28;5065750;28;20483;-74
2022/01/05 11:18:11;;;;;;;24.98;4.85;;;;;;;6.07;100.00;100588.19;5064167;28;20050;-73
2022/01/05 11:20:52;;;;;;;27.25;5.00;;;;;;;5.77;100.00;100597.66;5070174;28;20025;-72